Time;durP1;ratioP1;P1;durP2;ratioP2;P2;SDS_P1;SDS_P2;PMS_P1;PMS_P2;Temp;Humidity;BMP_temperature;BMP_pressure;BME280_temperature;BME280_humidity;BME280_pressure;Samples;Min_cycle;Max_cycle;Signal;HPM_P1;HPM_P2
2021/08/06 00:01:20;;;;;;;8.85;4.25;;;15.90;85.50;;;;;;5073169;28;20699;-85
2021/08/06 00:03:46;;;;;;;13.13;4.22;;;15.80;85.50;;;;;;5073172;28;20179;-86
2021/08/06 00:06:12;;;;;;;4.90;4.03;;;15.70;85.70;;;;;;5055175;28;20182;-85
2021/08/06 00:08:38;;;;;;;6.10;4.13;;;15.70;85.90;;;;;;5073040;28;20170;-85
2021/08/06 00:11:04;;;;;;;6.10;4.50;;;15.70;86.10;;;;;;5055168;28;20191;-84
2021/08/06 00:13:30;;;;;;;6.13;3.97;;;15.60;86.50;;;;;;5073140;28;20647;-84
2021/08/06 00:15:59;;;;;;;4.78;4.38;;;15.50;86.70;;;;;;5055168;28;20178;-85
2021/08/06 00:18:25;;;;;;;8.45;4.55;;;15.50;86.90;;;;;;5073049;28;20163;-85
2021/08/06 00:20:52;;;;;;;7.15;5.00;;;15.40;87.10;;;;;;5055010;28;20195;-85
2021/08/06 00:23:18;;;;;;;12.60;4.53;;;15.40;87.20;;;;;;5054950;28;20233;-87
2021/08/06 00:25:43;;;;;;;10.00;4.88;;;15.50;87.20;;;;;;5054830;28;20175;-85
2021/08/06 00:28:10;;;;;;;7.90;4.38;;;15.50;86.90;;;;;;5073155;28;20195;-85
2021/08/06 00:30:37;;;;;;;10.90;4.43;;;15.50;86.90;;;;;;5054901;28;20188;-85
2021/08/06 00:33:03;;;;;;;5.70;4.40;;;15.50;86.40;;;;;;5072845;28;20246;-85
2021/08/06 00:35:29;;;;;;;9.68;3.85;;;15.50;86.00;;;;;;5073167;28;20715;-85
2021/08/06 00:37:55;;;;;;;7.03;5.15;;;15.50;85.70;;;;;;5054902;28;20172;-86
2021/08/06 00:40:24;;;;;;;8.10;4.63;;;15.50;85.50;;;;;;5054659;28;20365;-85
2021/08/06 00:42:51;;;;;;;6.22;5.30;;;15.50;86.40;;;;;;5073205;28;20678;-85
2021/08/06 00:45:17;;;;;;;6.57;5.15;;;15.50;87.00;;;;;;5054960;28;20764;-85
2021/08/06 00:47:44;;;;;;;15.60;5.20;;;15.30;87.20;;;;;;5072689;28;20188;-85
2021/08/06 00:50:11;;;;;;;11.57;5.45;;;15.20;87.50;;;;;;5072545;28;20180;-85
2021/08/06 00:52:38;;;;;;;10.50;5.53;;;15.20;87.70;;;;;;5054801;28;20175;-85
2021/08/06 00:55:06;;;;;;;6.18;5.30;;;15.00;87.80;;;;;;5054548;28;20646;-85
2021/08/06 00:57:32;;;;;;;11.33;5.00;;;15.00;88.10;;;;;;5054756;28;20526;-86
2021/08/06 00:59:58;;;;;;;6.37;5.73;;;14.90;88.30;;;;;;5074980;28;20176;-86
2021/08/06 01:02:27;;;;;;;20.63;6.33;;;14.90;88.40;;;;;;5076447;28;20201;-86
2021/08/06 01:04:58;;;;;;;11.83;6.23;;;14.90;88.50;;;;;;5058243;28;20269;-85
2021/08/06 01:07:31;;;;;;;6.73;6.03;;;14.90;88.60;;;;;;5058121;28;20202;-86
2021/08/06 01:10:03;;;;;;;6.63;5.93;;;14.90;88.70;;;;;;5058178;28;20168;-86
2021/08/06 01:12:38;;;;;;;7.00;5.40;;;14.90;88.70;;;;;;5076436;28;20156;-86
2021/08/06 01:15:04;;;;;;;8.50;6.43;;;15.00;88.50;;;;;;5076128;28;20159;-85
2021/08/06 01:17:34;;;;;;;6.37;5.77;;;15.00;88.50;;;;;;5075859;28;20175;-86
2021/08/06 01:20:12;;;;;;;10.47;6.03;;;15.00;88.50;;;;;;5058065;28;20184;-85
2021/08/06 01:22:46;;;;;;;6.70;5.73;;;15.00;88.50;;;;;;5058034;28;20168;-85
2021/08/06 01:25:15;;;;;;;8.73;5.40;;;14.90;88.60;;;;;;5076009;28;20151;-85
2021/08/06 01:27:43;;;;;;;10.27;7.00;;;14.80;88.70;;;;;;5057851;28;20278;-86
2021/08/06 01:30:10;;;;;;;10.77;6.63;;;14.70;88.70;;;;;;5057773;28;20191;-86
2021/08/06 01:32:36;;;;;;;15.40;7.27;;;14.60;89.00;;;;;;5057789;28;20175;-85
2021/08/06 01:35:04;;;;;;;17.80;7.40;;;14.70;89.20;;;;;;5057747;28;20217;-86
2021/08/06 01:37:30;;;;;;;9.33;7.20;;;14.60;89.50;;;;;;5057709;28;20214;-85
2021/08/06 01:39:56;;;;;;;8.77;7.93;;;14.60;89.90;;;;;;5075374;28;20178;-86
2021/08/06 01:42:40;;;;;;;13.87;7.93;;;14.60;90.20;;;;;;5057684;28;20206;-86
2021/08/06 01:45:16;;;;;;;13.83;8.07;;;14.60;90.30;;;;;;5057540;28;20160;-87
2021/08/06 01:47:49;;;;;;;12.97;8.77;;;14.60;90.40;;;;;;5057403;28;20229;-87
2021/08/06 01:50:21;;;;;;;7.83;7.07;;;14.60;90.40;;;;;;5057460;28;20198;-87
2021/08/06 01:52:50;;;;;;;10.87;6.90;;;14.70;90.50;;;;;;5075491;28;20160;-87
2021/08/06 01:55:17;;;;;;;8.17;7.03;;;14.60;90.00;;;;;;5057411;28;20541;-87
2021/08/06 01:57:49;;;;;;;13.13;7.90;;;14.70;89.90;;;;;;5057388;28;20171;-87
2021/08/06 02:00:15;;;;;;;15.77;7.03;;;14.70;89.90;;;;;;5057257;28;20264;-87
2021/08/06 02:02:41;;;;;;;8.70;7.27;;;14.70;89.90;;;;;;5057262;28;20175;-87
2021/08/06 02:05:10;;;;;;;11.03;6.90;;;14.80;89.60;;;;;;5075149;28;20609;-86
2021/08/06 02:07:36;;;;;;;14.83;7.47;;;14.80;89.50;;;;;;5057155;28;20195;-87
2021/08/06 02:10:04;;;;;;;8.33;7.07;;;14.80;89.40;;;;;;5056815;28;20168;-87
2021/08/06 02:12:30;;;;;;;9.13;7.47;;;14.80;89.20;;;;;;5056474;28;20179;-87
2021/08/06 02:14:56;;;;;;;7.90;6.63;;;14.80;89.20;;;;;;5075145;28;20167;-86
2021/08/06 02:17:23;;;;;;;16.20;7.50;;;14.80;89.10;;;;;;5075128;28;20301;-87
2021/08/06 02:19:51;;;;;;;11.13;7.63;;;14.80;89.00;;;;;;5056804;28;20198;-87
2021/08/06 02:22:18;;;;;;;15.87;8.47;;;14.80;88.90;;;;;;5074855;28;20179;-87
2021/08/06 02:24:44;;;;;;;13.03;7.43;;;14.80;89.10;;;;;;5074791;28;20587;-87
2021/08/06 02:27:15;;;;;;;21.13;8.27;;;14.80;89.10;;;;;;5056739;28;20577;-87
2021/08/06 02:29:43;;;;;;;11.77;7.73;;;14.70;89.50;;;;;;5056976;28;20160;-87
2021/08/06 02:32:10;;;;;;;14.80;8.67;;;14.80;89.70;;;;;;5074623;28;20663;-87
2021/08/06 02:34:36;;;;;;;14.37;9.00;;;14.80;89.70;;;;;;5074655;28;20221;-87
2021/08/06 02:37:02;;;;;;;9.73;8.47;;;14.80;89.90;;;;;;5074816;28;20181;-87
2021/08/06 02:39:31;;;;;;;12.07;8.83;;;14.80;90.10;;;;;;5074385;28;20246;-87
2021/08/06 02:41:59;;;;;;;9.60;8.60;;;14.80;90.20;;;;;;5080136;23;20624;-89
2021/08/06 02:44:25;;;;;;;17.67;8.67;;;14.80;90.20;;;;;;5074589;28;20170;-89
2021/08/06 02:46:51;;;;;;;11.30;9.03;;;14.80;90.30;;;;;;5074537;28;20195;-89
2021/08/06 02:49:16;;;;;;;13.20;9.47;;;14.80;90.40;;;;;;5074652;28;20168;-89
2021/08/06 02:51:42;;;;;;;12.47;9.23;;;14.80;90.40;;;;;;5074377;28;20198;-89
2021/08/06 02:54:08;;;;;;;12.90;9.23;;;14.80;90.40;;;;;;5074558;28;20175;-89
2021/08/06 02:56:34;;;;;;;10.10;9.10;;;14.80;90.50;;;;;;5074308;28;20172;-90
2021/08/06 02:59:00;;;;;;;11.23;9.50;;;14.80;90.40;;;;;;5074257;28;20246;-89
2021/08/06 03:01:26;;;;;;;11.97;8.83;;;14.80;90.30;;;;;;5074125;28;20231;-89
2021/08/06 03:03:52;;;;;;;10.23;9.13;;;14.80;90.40;;;;;;5074165;28;20171;-89
2021/08/06 03:06:17;;;;;;;11.30;9.43;;;14.70;90.30;;;;;;5074370;28;20171;-89
2021/08/06 03:08:43;;;;;;;12.10;9.80;;;14.70;90.40;;;;;;5074091;28;20244;-89
2021/08/06 03:11:09;;;;;;;12.37;10.37;;;14.70;90.40;;;;;;5074214;28;20187;-89
2021/08/06 03:13:35;;;;;;;14.63;9.70;;;14.60;90.40;;;;;;5056115;28;20206;-89
2021/08/06 03:16:00;;;;;;;15.77;10.30;;;14.70;90.50;;;;;;5074004;28;20175;-89
2021/08/06 03:18:26;;;;;;;14.60;10.80;;;14.70;90.50;;;;;;5073901;28;20190;-89
2021/08/06 03:20:52;;;;;;;14.67;10.53;;;14.60;90.40;;;;;;5073885;28;20286;-89
2021/08/06 03:23:17;;;;;;;11.07;10.00;;;14.60;90.50;;;;;;5072919;28;20168;-89
2021/08/06 03:25:43;;;;;;;13.60;10.07;;;14.50;90.50;;;;;;5073835;28;20666;-89
2021/08/06 03:28:09;;;;;;;15.47;10.40;;;14.40;90.70;;;;;;5073688;28;20198;-89
2021/08/06 03:30:36;;;;;;;11.47;10.23;;;14.50;90.80;;;;;;5073701;28;20171;-89
2021/08/06 03:33:01;;;;;;;12.43;11.13;;;14.40;90.80;;;;;;5073728;28;20189;-89
2021/08/06 03:35:27;;;;;;;11.97;10.77;;;14.40;90.90;;;;;;5073648;28;20706;-89
2021/08/06 03:37:53;;;;;;;12.53;10.47;;;14.40;90.90;;;;;;5055765;28;20194;-89
2021/08/06 03:40:18;;;;;;;24.20;12.07;;;14.40;90.90;;;;;;5073649;28;20255;-89
2021/08/06 03:42:44;;;;;;;27.90;11.47;;;14.50;91.00;;;;;;5073890;28;20252;-89
2021/08/06 03:45:11;;;;;;;13.03;10.87;;;14.50;91.00;;;;;;5073763;28;20171;-89
2021/08/06 03:47:37;;;;;;;19.23;11.17;;;14.50;91.10;;;;;;5073402;28;20199;-89
2021/08/06 03:50:05;;;;;;;17.37;10.57;;;14.50;91.10;;;;;;5073402;28;20242;-89
2021/08/06 03:52:30;;;;;;;13.80;10.87;;;14.60;91.20;;;;;;5073312;28;20270;-89
2021/08/06 03:54:56;;;;;;;14.00;10.50;;;14.70;91.20;;;;;;5073352;28;20210;-89
2021/08/06 03:57:22;;;;;;;19.03;10.97;;;14.70;91.30;;;;;;5073388;28;20263;-89
2021/08/06 03:59:47;;;;;;;11.97;10.77;;;14.70;91.40;;;;;;5073554;28;20175;-89
2021/08/06 04:02:13;;;;;;;12.17;10.80;;;14.80;91.40;;;;;;5073197;28;20191;-89
2021/08/06 04:04:38;;;;;;;16.10;11.20;;;14.80;91.40;;;;;;5073283;28;20176;-89
2021/08/06 04:07:04;;;;;;;16.37;10.87;;;14.90;91.40;;;;;;5055258;28;20207;-89
2021/08/06 04:09:30;;;;;;;14.10;10.00;;;15.00;91.40;;;;;;5073181;28;20216;-89
2021/08/06 04:11:55;;;;;;;17.57;10.77;;;15.00;91.40;;;;;;5073270;28;20187;-89
2021/08/06 04:14:21;;;;;;;11.20;10.07;;;15.10;91.30;;;;;;5073142;28;20174;-90
2021/08/06 04:16:48;;;;;;;26.33;10.33;;;15.20;91.20;;;;;;5073153;28;20171;-89
2021/08/06 04:19:14;;;;;;;16.73;10.40;;;15.30;91.00;;;;;;5073096;28;20174;-89
2021/08/06 04:21:39;;;;;;;13.63;9.83;;;15.30;90.90;;;;;;5073132;28;20244;-89
2021/08/06 04:24:05;;;;;;;10.37;9.47;;;15.30;90.80;;;;;;5055252;28;20170;-89
2021/08/06 04:26:31;;;;;;;11.10;9.97;;;15.40;90.80;;;;;;5073574;28;20226;-89
2021/08/06 04:28:56;;;;;;;11.93;10.23;;;15.40;90.80;;;;;;5073073;28;20643;-89
2021/08/06 04:31:22;;;;;;;10.57;9.68;;;15.50;90.70;;;;;;5073329;28;20195;-89
2021/08/06 04:33:48;;;;;;;10.25;9.23;;;15.60;90.70;;;;;;5074061;28;20167;-89
2021/08/06 04:36:13;;;;;;;12.07;9.33;;;15.60;90.60;;;;;;5077047;28;20539;-89
2021/08/06 04:38:39;;;;;;;13.68;9.52;;;15.70;90.40;;;;;;5059089;28;20176;-89
2021/08/06 04:41:05;;;;;;;10.50;9.17;;;15.70;90.20;;;;;;5059009;28;20203;-89
2021/08/06 04:43:30;;;;;;;11.85;9.27;;;15.80;90.10;;;;;;5077233;28;20186;-89
2021/08/06 04:45:56;;;;;;;10.05;9.10;;;15.80;90.10;;;;;;5077147;28;20168;-89
2021/08/06 04:48:23;;;;;;;10.90;9.23;;;15.90;89.90;;;;;;5076647;28;20195;-89
2021/08/06 04:50:50;;;;;;;9.85;8.85;;;15.80;89.70;;;;;;5076914;28;20202;-89
2021/08/06 04:53:15;;;;;;;12.93;8.63;;;15.90;89.60;;;;;;5076680;28;20164;-89
2021/08/06 04:55:41;;;;;;;9.80;8.80;;;15.90;89.60;;;;;;5076617;28;20168;-89
2021/08/06 04:58:07;;;;;;;10.52;9.32;;;15.80;89.40;;;;;;5058728;28;20179;-89
2021/08/06 05:00:34;;;;;;;11.27;10.07;;;15.90;89.60;;;;;;5076743;28;20171;-89
2021/08/06 05:02:59;;;;;;;9.20;8.40;;;15.90;89.70;;;;;;5076659;28;20228;-89
2021/08/06 05:05:25;;;;;;;10.02;8.68;;;16.00;89.70;;;;;;5077012;28;20566;-89
2021/08/06 05:07:53;;;;;;;13.05;8.85;;;16.00;89.60;;;;;;5076307;28;20206;-89
2021/08/06 05:10:23;;;;;;;10.57;9.13;;;16.10;89.40;;;;;;5076404;28;20179;-89
2021/08/06 05:12:49;;;;;;;9.27;8.48;;;16.20;89.30;;;;;;5076298;28;20187;-89
2021/08/06 05:15:15;;;;;;;10.80;9.70;;;16.30;89.30;;;;;;5076784;28;20258;-89
2021/08/06 05:17:42;;;;;;;13.20;9.57;;;16.30;88.90;;;;;;5076269;28;20168;-89
2021/08/06 05:20:08;;;;;;;11.00;8.90;;;16.40;88.80;;;;;;5076181;28;20167;-89
2021/08/06 05:22:34;;;;;;;10.50;9.45;;;16.40;88.50;;;;;;5076098;28;20222;-89
2021/08/06 05:25:00;;;;;;;15.65;9.63;;;16.40;88.30;;;;;;5058135;28;20268;-89
2021/08/06 05:27:25;;;;;;;15.80;10.18;;;16.40;88.10;;;;;;5058161;28;20272;-89
2021/08/06 05:29:51;;;;;;;12.13;10.15;;;16.50;88.00;;;;;;5076020;28;20163;-89
2021/08/06 05:32:17;;;;;;;13.50;10.20;;;16.50;87.90;;;;;;5076009;28;20191;-89
2021/08/06 05:34:43;;;;;;;12.15;10.15;;;16.60;87.70;;;;;;5058038;28;20186;-89
2021/08/06 05:37:08;;;;;;;11.32;10.13;;;16.60;87.40;;;;;;5076274;28;20194;-89
2021/08/06 05:39:34;;;;;;;10.20;9.23;;;16.60;87.10;;;;;;5075920;28;20217;-89
2021/08/06 05:42:00;;;;;;;13.32;9.75;;;16.60;87.10;;;;;;5075659;28;20264;-89
2021/08/06 05:44:25;;;;;;;11.15;9.82;;;16.70;86.70;;;;;;5075778;28;20194;-89
2021/08/06 05:46:51;;;;;;;11.13;10.07;;;16.70;86.60;;;;;;5074764;28;20203;-89
2021/08/06 05:49:17;;;;;;;11.70;9.30;;;16.70;86.90;;;;;;5075642;28;20179;-89
2021/08/06 05:51:42;;;;;;;11.00;9.90;;;16.70;86.50;;;;;;5075485;28;20225;-89
2021/08/06 05:54:08;;;;;;;9.55;8.63;;;16.70;86.40;;;;;;5075786;28;20171;-89
2021/08/06 05:56:34;;;;;;;9.27;8.30;;;16.80;86.00;;;;;;5075512;28;20282;-89
2021/08/06 05:58:59;;;;;;;11.38;7.70;;;16.70;85.40;;;;;;5075753;28;20542;-90
2021/08/06 06:01:25;;;;;;;10.25;7.80;;;16.80;84.40;;;;;;5075401;28;20191;-89
2021/08/06 06:03:51;;;;;;;8.80;7.90;;;16.80;85.10;;;;;;5075421;28;20172;-89
2021/08/06 06:06:17;;;;;;;12.13;7.30;;;16.80;85.40;;;;;;5075271;28;20177;-89
2021/08/06 06:08:42;;;;;;;9.80;7.25;;;16.90;85.10;;;;;;5075347;28;20171;-89
2021/08/06 06:11:08;;;;;;;7.10;6.50;;;16.90;85.10;;;;;;5075258;28;20195;-89
2021/08/06 06:13:35;;;;;;;8.40;6.63;;;17.00;84.70;;;;;;5075525;28;20225;-89
2021/08/06 06:16:02;;;;;;;12.40;6.78;;;17.00;84.30;;;;;;5075422;28;20207;-89
2021/08/06 06:18:28;;;;;;;9.30;6.28;;;17.00;84.30;;;;;;5057205;28;20182;-89
2021/08/06 06:20:54;;;;;;;8.88;7.35;;;17.10;83.30;;;;;;5075042;28;20628;-89
2021/08/06 06:23:19;;;;;;;7.45;6.75;;;17.10;83.10;;;;;;5075044;28;20179;-89
2021/08/06 06:25:45;;;;;;;6.95;5.97;;;17.20;83.30;;;;;;5075031;28;20611;-89
2021/08/06 06:28:11;;;;;;;6.30;5.70;;;17.20;82.60;;;;;;5074892;28;20221;-89
2021/08/06 06:30:36;;;;;;;6.63;5.97;;;17.30;82.40;;;;;;5074880;28;20172;-89
2021/08/06 06:33:03;;;;;;;7.03;5.78;;;17.30;81.30;;;;;;5074850;28;20178;-89
2021/08/06 06:35:30;;;;;;;7.28;5.30;;;17.30;82.20;;;;;;5074830;28;20187;-90
2021/08/06 06:37:56;;;;;;;6.10;5.50;;;17.40;82.80;;;;;;5075332;28;20175;-89
2021/08/06 06:40:23;;;;;;;5.82;5.20;;;17.50;82.10;;;;;;5074763;28;20178;-89
2021/08/06 06:42:49;;;;;;;13.13;6.97;;;17.60;82.20;;;;;;5075383;28;20207;-89
2021/08/06 06:45:16;;;;;;;8.30;4.95;;;17.80;81.30;;;;;;5074638;28;20546;-89
2021/08/06 06:47:44;;;;;;;7.22;5.38;;;17.70;81.40;;;;;;5074578;28;20750;-89
2021/08/06 06:50:13;;;;;;;6.38;4.90;;;17.70;80.20;;;;;;5074492;28;20275;-89
2021/08/06 06:52:39;;;;;;;5.20;4.70;;;17.60;79.60;;;;;;5074414;28;20536;-89
2021/08/06 06:55:07;;;;;;;7.05;5.20;;;17.60;80.10;;;;;;5074387;28;20186;-89
2021/08/06 06:57:44;;;;;;;9.25;5.28;;;17.80;80.20;;;;;;5074032;28;20525;-90
2021/08/06 07:00:11;;;;;;;6.03;5.35;;;18.00;80.20;;;;;;5074277;28;20151;-89
2021/08/06 07:02:37;;;;;;;5.47;4.70;;;18.10;79.10;;;;;;5056304;28;20256;-89
2021/08/06 07:05:03;;;;;;;17.67;4.90;;;18.20;77.80;;;;;;5074256;28;20174;-89
2021/08/06 07:07:29;;;;;;;7.25;5.35;;;18.20;78.20;;;;;;5074363;28;20610;-89
2021/08/06 07:09:54;;;;;;;4.93;4.47;;;18.10;78.70;;;;;;5056732;28;20167;-89
2021/08/06 07:12:20;;;;;;;5.68;4.43;;;18.20;79.00;;;;;;5056170;28;20203;-89
2021/08/06 07:14:45;;;;;;;6.60;4.32;;;18.30;76.90;;;;;;5074040;28;20202;-89
2021/08/06 07:17:11;;;;;;;4.30;3.92;;;18.40;77.10;;;;;;5074001;28;20224;-89
2021/08/06 07:19:37;;;;;;;9.93;4.35;;;18.40;76.80;;;;;;5074269;28;20560;-89
2021/08/06 07:22:03;;;;;;;4.45;4.05;;;18.40;77.60;;;;;;5073831;28;20270;-89
2021/08/06 07:24:29;;;;;;;4.63;4.03;;;18.50;77.80;;;;;;5073984;28;20178;-89
2021/08/06 07:26:54;;;;;;;7.07;3.90;;;18.50;77.00;;;;;;5073766;28;20195;-89
2021/08/06 07:29:20;;;;;;;5.75;3.88;;;18.70;77.30;;;;;;5073756;28;20246;-89
2021/08/06 07:31:45;;;;;;;5.15;4.18;;;18.90;76.60;;;;;;5073678;28;20237;-90
2021/08/06 07:34:11;;;;;;;4.43;4.07;;;18.70;76.70;;;;;;5073776;28;20221;-88
2021/08/06 07:36:37;;;;;;;4.57;3.60;;;18.80;76.90;;;;;;5073698;28;20175;-89
2021/08/06 07:39:03;;;;;;;4.38;3.85;;;19.00;76.60;;;;;;5073872;28;20167;-89
2021/08/06 07:41:28;;;;;;;4.25;3.40;;;19.00;76.40;;;;;;5073448;28;20708;-89
2021/08/06 07:43:54;;;;;;;6.30;3.40;;;19.20;74.00;;;;;;5073564;28;20175;-89
2021/08/06 07:46:20;;;;;;;4.25;3.28;;;19.40;73.40;;;;;;5073412;28;20175;-89
2021/08/06 07:48:46;;;;;;;3.75;2.95;;;19.50;74.00;;;;;;5073544;28;20171;-89
2021/08/06 07:51:11;;;;;;;3.47;3.17;;;19.70;72.30;;;;;;5073444;28;20187;-89
2021/08/06 07:53:37;;;;;;;9.65;3.20;;;19.70;71.50;;;;;;5073433;28;20644;-89
2021/08/06 07:56:03;;;;;;;4.45;3.20;;;19.80;73.00;;;;;;5073367;28;20167;-89
2021/08/06 07:58:29;;;;;;;5.00;3.30;;;20.00;71.40;;;;;;5073624;28;20183;-89
2021/08/06 08:00:54;;;;;;;3.30;3.00;;;19.90;72.60;;;;;;5073623;28;20206;-88
2021/08/06 08:03:20;;;;;;;3.15;2.90;;;20.00;71.40;;;;;;5073320;28;20268;-89
2021/08/06 08:05:45;;;;;;;4.50;2.65;;;20.20;71.80;;;;;;5055615;28;20729;-90
2021/08/06 08:08:12;;;;;;;5.20;2.67;;;20.30;69.60;;;;;;5072768;28;20199;-90
2021/08/06 08:10:38;;;;;;;3.25;2.95;;;20.40;71.20;;;;;;5073014;28;20591;-90
2021/08/06 08:13:03;;;;;;;4.75;3.30;;;20.50;71.10;;;;;;5073570;28;20167;-90
2021/08/06 08:15:29;;;;;;;2.75;2.55;;;20.50;71.50;;;;;;5073585;28;20168;-89
2021/08/06 08:17:55;;;;;;;3.95;2.97;;;20.60;70.70;;;;;;5055439;28;20665;-89
2021/08/06 08:20:21;;;;;;;8.40;2.42;;;20.70;69.70;;;;;;5073404;28;20167;-89
2021/08/06 08:22:46;;;;;;;2.88;2.67;;;20.70;69.10;;;;;;5073479;28;20270;-88
2021/08/06 08:25:12;;;;;;;5.72;2.80;;;20.80;70.20;;;;;;5055189;28;20171;-89
2021/08/06 08:27:39;;;;;;;2.78;2.58;;;20.80;69.70;;;;;;5055149;28;20742;-89
2021/08/06 08:30:07;;;;;;;2.40;2.20;;;20.90;68.80;;;;;;5055995;28;20631;-89
2021/08/06 08:32:37;;;;;;;2.88;2.60;;;21.00;69.30;;;;;;5055066;28;20187;-89
2021/08/06 08:35:04;;;;;;;3.55;2.60;;;21.00;68.60;;;;;;5055155;28;20156;-89
2021/08/06 08:37:30;;;;;;;2.78;2.38;;;21.10;69.40;;;;;;5055051;28;20266;-89
2021/08/06 08:39:56;;;;;;;2.63;2.42;;;21.20;70.40;;;;;;5055638;28;20271;-89
2021/08/06 08:42:22;;;;;;;2.75;2.40;;;21.30;67.30;;;;;;5074809;28;20211;-88
2021/08/06 08:44:49;;;;;;;4.15;2.50;;;21.40;67.20;;;;;;5058642;28;20646;-88
2021/08/06 08:47:20;;;;;;;3.95;2.50;;;21.60;67.40;;;;;;5075288;28;20195;-89
2021/08/06 08:49:49;;;;;;;7.82;2.45;;;21.70;66.30;;;;;;5057045;28;20167;-88
2021/08/06 08:52:15;;;;;;;3.45;2.20;;;21.70;66.00;;;;;;5057390;28;20262;-88
2021/08/06 08:54:41;;;;;;;2.50;2.30;;;21.90;66.70;;;;;;5056631;28;20171;-89
2021/08/06 08:57:06;;;;;;;2.70;2.45;;;21.90;64.70;;;;;;5056552;28;20237;-88
2021/08/06 08:59:32;;;;;;;2.95;2.45;;;21.80;64.70;;;;;;5057581;28;20182;-88
2021/08/06 09:01:58;;;;;;;4.03;3.03;;;21.80;66.20;;;;;;5057014;28;20201;-88
2021/08/06 09:04:29;;;;;;;4.43;3.33;;;21.80;67.80;;;;;;5057172;28;20228;-88
2021/08/06 09:06:56;;;;;;;3.58;3.28;;;21.70;66.50;;;;;;5056646;28;20187;-88
2021/08/06 09:09:26;;;;;;;3.17;2.65;;;22.00;65.80;;;;;;5056955;28;20175;-88
2021/08/06 09:12:05;;;;;;;3.28;2.97;;;22.20;67.40;;;;;;5057213;28;20701;-88
2021/08/06 09:14:32;;;;;;;4.50;2.67;;;22.40;65.80;;;;;;5056800;28;20195;-88
2021/08/06 09:17:09;;;;;;;4.22;2.75;;;22.40;65.50;;;;;;5055998;28;20674;-88
2021/08/06 09:19:57;;;;;;;3.45;3.10;;;22.50;64.50;;;;;;5074945;28;20186;-88
2021/08/06 09:22:25;;;;;;;3.53;3.20;;;22.40;63.90;;;;;;5060059;28;20758;-88
2021/08/06 09:25:13;;;;;;;3.95;3.08;;;22.40;63.80;;;;;;5060780;28;20175;-88
2021/08/06 09:27:49;;;;;;;3.47;2.60;;;22.70;64.90;;;;;;5060265;28;20197;-88
2021/08/06 09:30:33;;;;;;;4.72;2.83;;;22.80;64.10;;;;;;5060330;28;20163;-89
2021/08/06 09:32:59;;;;;;;2.83;2.60;;;23.00;63.90;;;;;;5059374;28;20160;-87
2021/08/06 09:35:27;;;;;;;3.08;2.88;;;23.00;63.80;;;;;;5077524;28;20175;-87
2021/08/06 09:37:53;;;;;;;6.35;3.00;;;23.10;63.70;;;;;;5078130;28;20269;-87
2021/08/06 09:40:25;;;;;;;5.85;3.22;;;23.10;63.90;;;;;;5059335;28;20210;-88
2021/08/06 09:42:54;;;;;;;3.00;2.70;;;23.10;62.50;;;;;;5076713;28;20686;-87
2021/08/06 09:45:23;;;;;;;5.97;3.17;;;23.20;62.60;;;;;;5059353;28;20662;-87
2021/08/06 09:47:55;;;;;;;2.90;2.70;;;23.00;62.60;;;;;;5059263;28;20222;-88
2021/08/06 09:50:23;;;;;;;3.30;3.00;;;23.20;62.50;;;;;;5059662;28;20221;-88
2021/08/06 09:52:51;;;;;;;9.90;3.17;;;23.30;62.80;;;;;;5059718;28;20671;-88
2021/08/06 09:55:43;;;;;;;3.38;2.80;;;23.40;61.10;;;;;;5061241;28;20596;-88
2021/08/06 09:58:11;;;;;;;2.95;2.58;;;23.40;61.20;;;;;;5078577;28;20187;-89
2021/08/06 10:00:42;;;;;;;3.25;2.80;;;23.40;62.60;;;;;;5061173;28;20171;-88
2021/08/06 10:03:22;;;;;;;4.90;2.70;;;23.50;61.70;;;;;;5061175;28;20182;-88
2021/08/06 10:05:48;;;;;;;5.90;2.58;;;23.60;61.50;;;;;;5061340;28;20163;-88
2021/08/06 10:08:14;;;;;;;3.70;2.72;;;23.60;60.20;;;;;;5060324;28;20267;-88
2021/08/06 10:10:40;;;;;;;3.05;2.85;;;23.70;59.70;;;;;;5060990;28;20646;-88
2021/08/06 10:13:06;;;;;;;3.20;2.90;;;23.80;60.80;;;;;;5061148;28;20167;-88
2021/08/06 10:15:31;;;;;;;5.45;3.20;;;24.00;60.50;;;;;;5061382;28;20175;-88
2021/08/06 10:17:59;;;;;;;3.78;3.08;;;23.80;59.80;;;;;;5060809;28;20541;-89
2021/08/06 10:20:27;;;;;;;4.43;2.90;;;24.00;60.00;;;;;;5060519;28;20175;-88
2021/08/06 10:22:54;;;;;;;7.82;3.13;;;24.00;61.60;;;;;;5060231;28;20303;-88
2021/08/06 10:25:21;;;;;;;3.10;2.80;;;24.20;59.50;;;;;;5059597;28;20179;-88
2021/08/06 10:27:49;;;;;;;4.93;3.00;;;24.30;59.10;;;;;;5059525;28;20206;-88
2021/08/06 10:30:33;;;;;;;5.22;2.97;;;24.30;59.10;;;;;;5058990;28;20262;-87
2021/08/06 10:33:28;;;;;;;3.50;3.13;;;24.40;59.90;;;;;;5062226;28;20167;-89
2021/08/06 10:36:06;;;;;;;3.67;2.95;;;24.30;60.90;;;;;;5080024;28;20154;-88
2021/08/06 10:38:42;;;;;;;9.07;2.75;;;24.60;56.90;;;;;;5061177;28;20178;-88
2021/08/06 10:41:15;;;;;;;3.80;3.17;;;24.80;59.70;;;;;;5060182;28;20210;-87
2021/08/06 10:44:01;;;;;;;4.55;3.92;;;24.60;58.50;;;;;;5058259;28;20217;-87
2021/08/06 10:46:27;;;;;;;4.15;3.13;;;24.20;60.10;;;;;;5076843;28;20205;-87
2021/08/06 10:48:54;;;;;;;4.00;3.22;;;24.20;60.30;;;;;;5077300;28;20163;-88
2021/08/06 10:51:27;;;;;;;2.90;2.70;;;24.50;60.50;;;;;;5060621;28;20202;-87
2021/08/06 10:53:58;;;;;;;4.80;3.28;;;24.90;59.40;;;;;;5059949;28;20580;-88
2021/08/06 10:56:32;;;;;;;4.07;3.10;;;24.80;59.30;;;;;;5058707;28;20715;-87
2021/08/06 10:59:14;;;;;;;4.10;3.70;;;24.60;60.40;;;;;;5062034;28;20172;-88
2021/08/06 11:01:50;;;;;;;4.43;2.92;;;24.50;60.70;;;;;;5060737;28;20191;-88
2021/08/06 11:04:19;;;;;;;3.28;2.80;;;24.80;59.50;;;;;;5062356;28;20163;-88
2021/08/06 11:06:51;;;;;;;5.57;3.10;;;24.90;57.30;;;;;;5079548;28;20262;-88
2021/08/06 11:09:23;;;;;;;3.47;3.00;;;25.20;57.00;;;;;;5081454;28;20143;-88
2021/08/06 11:12:06;;;;;;;3.30;3.00;;;24.60;61.20;;;;;;5059025;28;20203;-88
2021/08/06 11:14:35;;;;;;;3.33;3.05;;;24.90;57.50;;;;;;5061216;28;20170;-88
2021/08/06 11:17:17;;;;;;;8.75;3.50;;;24.90;58.50;;;;;;5078081;28;20540;-88
2021/08/06 11:19:45;;;;;;;3.60;3.33;;;24.80;56.80;;;;;;5059723;28;20754;-89
2021/08/06 11:22:24;;;;;;;3.75;3.45;;;25.10;58.50;;;;;;5059366;28;20659;-89
2021/08/06 11:24:53;;;;;;;5.40;3.85;;;25.30;60.00;;;;;;5058610;28;20215;-89
2021/08/06 11:27:21;;;;;;;6.75;3.13;;;25.20;59.40;;;;;;5058121;28;20203;-88
2021/08/06 11:30:10;;;;;;;3.60;3.30;;;25.20;57.90;;;;;;5058770;28;20170;-89
2021/08/06 11:32:46;;;;;;;6.55;3.85;;;25.20;59.30;;;;;;5058957;28;20276;-87
2021/08/06 11:35:12;;;;;;;4.57;3.88;;;25.20;60.20;;;;;;5057962;28;20178;-87
2021/08/06 11:37:55;;;;;;;7.40;3.78;;;25.00;60.00;;;;;;5057175;28;20178;-87
2021/08/06 11:40:26;;;;;;;5.97;4.22;;;24.30;60.70;;;;;;5056660;28;20646;-87
2021/08/06 11:42:53;;;;;;;4.95;4.50;;;24.00;60.80;;;;;;5056309;28;20253;-87
2021/08/06 11:45:23;;;;;;;7.40;4.35;;;24.10;62.30;;;;;;5056531;28;20179;-88
2021/08/06 11:47:59;;;;;;;7.38;3.97;;;24.70;61.20;;;;;;5056171;28;20191;-87
2021/08/06 11:50:44;;;;;;;5.97;4.00;;;24.70;58.40;;;;;;5056538;28;20159;-88
2021/08/06 11:53:19;;;;;;;4.50;4.05;;;24.70;59.60;;;;;;5075055;28;20176;-87
2021/08/06 11:55:47;;;;;;;5.95;3.78;;;25.00;57.90;;;;;;5056300;28;20160;-87
2021/08/06 11:58:14;;;;;;;4.07;3.67;;;25.10;57.00;;;;;;5073734;28;20606;-87
2021/08/06 12:00:43;;;;;;;9.93;4.25;;;24.70;60.40;;;;;;5055878;28;20180;-88
2021/08/06 12:03:11;;;;;;;4.78;4.38;;;24.80;61.20;;;;;;5056384;28;20658;-87
2021/08/06 12:05:43;;;;;;;5.55;4.30;;;25.40;59.10;;;;;;5074950;28;20541;-88
2021/08/06 12:08:13;;;;;;;4.57;4.18;;;25.60;55.70;;;;;;5056273;28;20211;-88
2021/08/06 12:10:40;;;;;;;4.97;4.47;;;25.00;58.30;;;;;;5056241;28;20224;-88
2021/08/06 12:13:13;;;;;;;4.80;4.40;;;24.80;59.40;;;;;;5055672;28;20175;-87
2021/08/06 12:15:39;;;;;;;4.90;4.32;;;25.00;59.30;;;;;;5074200;28;20197;-87
2021/08/06 12:18:19;;;;;;;7.25;4.03;;;25.20;58.40;;;;;;5056866;28;20278;-88
2021/08/06 12:20:58;;;;;;;4.57;4.15;;;25.40;56.60;;;;;;5055704;28;20178;-88
2021/08/06 12:23:24;;;;;;;7.45;4.20;;;25.50;57.50;;;;;;5055340;28;20228;-88
2021/08/06 12:26:08;;;;;;;9.18;4.47;;;25.60;57.70;;;;;;5073715;28;20254;-87
2021/08/06 12:28:35;;;;;;;4.45;4.05;;;25.50;56.90;;;;;;5073829;28;20223;-87
2021/08/06 12:31:13;;;;;;;4.85;4.00;;;25.40;57.50;;;;;;5073458;28;20201;-86
2021/08/06 12:33:40;;;;;;;4.93;4.53;;;25.00;57.90;;;;;;5058147;28;20167;-88
2021/08/06 12:36:15;;;;;;;6.97;4.38;;;25.00;58.60;;;;;;5060696;28;20182;-88
2021/08/06 12:38:42;;;;;;;4.55;3.58;;;25.30;59.50;;;;;;5056080;28;20183;-87
2021/08/06 12:41:09;;;;;;;3.38;3.08;;;25.50;56.70;;;;;;5060376;28;20206;-88
2021/08/06 12:43:35;;;;;;;3.58;3.28;;;25.10;56.40;;;;;;5058794;28;20202;-87
2021/08/06 12:46:16;;;;;;;6.07;3.25;;;25.00;55.70;;;;;;5075588;28;20258;-87
2021/08/06 12:49:08;;;;;;;3.53;3.25;;;24.60;58.40;;;;;;5055535;28;20195;-87